Time;durP1;ratioP1;P1;durP2;ratioP2;P2;SDS_P1;SDS_P2;PMS_P1;PMS_P2;Temp;Humidity;BMP_temperature;BMP_pressure;BME280_temperature;BME280_humidity;BME280_pressure;Samples;Min_cycle;Max_cycle;Signal;HPM_P1;HPM_P2
2023/02/10 00:00:17;;;;;;;8.88;5.30;;;;;;;;;;4915669;29;20511;-49
2023/02/10 00:02:43;;;;;;;4.75;3.70;;;;;;;;;;4915163;29;20404;-49
2023/02/10 00:05:08;;;;;;;13.80;4.85;;;;;;;;;;4915321;29;20032;-50
2023/02/10 00:07:34;;;;;;;9.82;4.85;;;;;;;;;;4915201;29;20059;-49
2023/02/10 00:09:59;;;;;;;11.38;5.63;;;;;;;;;;4915391;29;20107;-48
2023/02/10 00:12:25;;;;;;;15.75;6.10;;;;;;;;;;4915176;29;20086;-49
2023/02/10 00:14:50;;;;;;;12.30;4.18;;;;;;;;;;4915278;29;20107;-48
2023/02/10 00:17:17;;;;;;;11.63;4.82;;;;;;;;;;4915225;29;20107;-48
2023/02/10 00:19:42;;;;;;;10.30;4.95;;;;;;;;;;4915071;29;20043;-48
2023/02/10 00:22:08;;;;;;;8.85;5.38;;;;;;;;;;4915245;29;20036;-49
2023/02/10 00:24:33;;;;;;;16.48;4.82;;;;;;;;;;4914958;29;20118;-49
2023/02/10 00:26:58;;;;;;;16.02;4.80;;;;;;;;;;4915133;29;20387;-49
2023/02/10 00:29:24;;;;;;;15.15;4.88;;;;;;;;;;4915309;29;20024;-50
2023/02/10 00:31:50;;;;;;;14.02;6.30;;;;;;;;;;4929696;29;20486;-48
2023/02/10 00:34:16;;;;;;;17.20;6.80;;;;;;;;;;4915052;29;20027;-49
2023/02/10 00:36:44;;;;;;;10.65;6.47;;;;;;;;;;4913703;29;20035;-49
2023/02/10 00:39:13;;;;;;;15.55;6.05;;;;;;;;;;4915347;29;20032;-49
2023/02/10 00:41:39;;;;;;;15.68;5.97;;;;;;;;;;4929454;29;20058;-48
2023/02/10 00:44:05;;;;;;;16.75;6.80;;;;;;;;;;4929324;29;20063;-49
2023/02/10 00:46:30;;;;;;;15.13;6.20;;;;;;;;;;4914912;29;20036;-49
2023/02/10 00:48:56;;;;;;;15.70;5.88;;;;;;;;;;4915019;29;20051;-49
2023/02/10 00:51:22;;;;;;;14.10;6.07;;;;;;;;;;4929689;29;20118;-48
2023/02/10 00:53:49;;;;;;;11.25;5.45;;;;;;;;;;4915155;29;20031;-48
2023/02/10 00:56:15;;;;;;;9.30;5.00;;;;;;;;;;4914953;29;20028;-48
2023/02/10 00:58:40;;;;;;;11.32;5.30;;;;;;;;;;4915108;29;20024;-49
2023/02/10 01:01:07;;;;;;;12.40;6.47;;;;;;;;;;4929377;29;20088;-49
2023/02/10 01:03:33;;;;;;;11.82;6.65;;;;;;;;;;4914842;29;20028;-49
2023/02/10 01:05:58;;;;;;;7.60;4.75;;;;;;;;;;4918566;29;20423;-48
2023/02/10 01:08:24;;;;;;;8.75;5.40;;;;;;;;;;4932885;29;20024;-49
2023/02/10 01:10:49;;;;;;;11.48;5.90;;;;;;;;;;4932918;29;20509;-49
2023/02/10 01:13:15;;;;;;;12.25;5.65;;;;;;;;;;4918580;29;20375;-49
2023/02/10 01:15:41;;;;;;;9.95;5.95;;;;;;;;;;4916913;29;20038;-49
2023/02/10 01:18:07;;;;;;;10.63;6.03;;;;;;;;;;4917008;29;20039;-49
2023/02/10 01:20:32;;;;;;;12.27;6.65;;;;;;;;;;4932630;29;20398;-49
2023/02/10 01:22:59;;;;;;;12.50;5.35;;;;;;;;;;4932728;29;20406;-50
2023/02/10 01:25:25;;;;;;;22.30;7.40;;;;;;;;;;4918045;29;20039;-48
2023/02/10 01:27:50;;;;;;;14.95;5.30;;;;;;;;;;4918378;29;20095;-49
2023/02/10 01:30:15;;;;;;;11.70;6.57;;;;;;;;;;4932550;29;20036;-49
2023/02/10 01:32:41;;;;;;;15.63;5.57;;;;;;;;;;4932407;29;20032;-49
2023/02/10 01:35:06;;;;;;;9.50;4.13;;;;;;;;;;4917954;29;20095;-49
2023/02/10 01:37:33;;;;;;;11.70;5.10;;;;;;;;;;4932310;29;20079;-49
2023/02/10 01:39:59;;;;;;;13.20;6.00;;;;;;;;;;4932418;29;20135;-49
2023/02/10 01:42:25;;;;;;;22.13;7.63;;;;;;;;;;4918051;29;20103;-49
2023/02/10 01:44:51;;;;;;;10.55;5.32;;;;;;;;;;4916187;29;20124;-48
2023/02/10 01:47:16;;;;;;;9.13;5.40;;;;;;;;;;4932685;29;20032;-49
2023/02/10 01:49:46;;;;;;;8.85;5.65;;;;;;;;;;4917618;29;20080;-49
2023/02/10 01:52:20;;;;;;;17.58;6.03;;;;;;;;;;4917602;29;20063;-49
2023/02/10 01:55:06;;;;;;;14.52;6.10;;;;;;;;;;4917420;29;20052;-49
2023/02/10 01:57:31;;;;;;;8.75;4.80;;;;;;;;;;4917272;29;20046;-49
2023/02/10 01:59:58;;;;;;;14.10;7.40;;;;;;;;;;4931953;29;20020;-48
2023/02/10 02:02:24;;;;;;;10.88;4.85;;;;;;;;;;4932042;29;20042;-49
2023/02/10 02:05:00;;;;;;;12.68;5.40;;;;;;;;;;4917274;29;20044;-49
2023/02/10 02:07:28;;;;;;;9.30;5.90;;;;;;;;;;4917301;29;20491;-49
2023/02/10 02:09:55;;;;;;;12.00;7.65;;;;;;;;;;4916138;29;20028;-49
2023/02/10 02:12:44;;;;;;;13.95;7.07;;;;;;;;;;4931839;29;20032;-49
2023/02/10 02:15:22;;;;;;;12.80;6.93;;;;;;;;;;4926121;29;20044;-49
2023/02/10 02:17:56;;;;;;;13.57;6.05;;;;;;;;;;4917161;29;20063;-49
2023/02/10 02:20:41;;;;;;;14.52;6.90;;;;;;;;;;4917348;29;20080;-48
2023/02/10 02:23:09;;;;;;;9.73;5.10;;;;;;;;;;4917249;29;20102;-49
2023/02/10 02:25:47;;;;;;;12.35;5.10;;;;;;;;;;4917023;29;20471;-48
2023/02/10 02:28:15;;;;;;;16.90;7.32;;;;;;;;;;4916942;29;20110;-49
2023/02/10 02:30:59;;;;;;;12.55;5.30;;;;;;;;;;4917167;29;20148;-48
2023/02/10 02:33:27;;;;;;;11.38;6.13;;;;;;;;;;4931359;29;20035;-49
2023/02/10 02:36:12;;;;;;;8.88;5.85;;;;;;;;;;4916857;29;20023;-49
2023/02/10 02:38:38;;;;;;;16.50;6.45;;;;;;;;;;4916993;29;20036;-49
2023/02/10 02:41:04;;;;;;;9.27;6.00;;;;;;;;;;4916720;29;20020;-48
2023/02/10 02:43:31;;;;;;;20.80;7.35;;;;;;;;;;4931209;29;20092;-49
2023/02/10 02:46:05;;;;;;;12.65;5.43;;;;;;;;;;4916559;29;20446;-48
2023/02/10 02:48:37;;;;;;;13.90;5.13;;;;;;;;;;4915294;29;20035;-48
2023/02/10 02:51:18;;;;;;;9.70;5.00;;;;;;;;;;4931160;29;20032;-48
2023/02/10 02:53:53;;;;;;;11.38;5.47;;;;;;;;;;4916376;29;20032;-48
2023/02/10 02:56:32;;;;;;;9.23;4.95;;;;;;;;;;4916442;29;20047;-48
2023/02/10 02:58:57;;;;;;;18.58;6.97;;;;;;;;;;4916394;29;20529;-48
2023/02/10 03:01:35;;;;;;;10.15;5.68;;;;;;;;;;4931008;29;20035;-48
2023/02/10 03:04:01;;;;;;;15.07;7.85;;;;;;;;;;4930766;29;20043;-49
2023/02/10 03:06:27;;;;;;;20.80;7.22;;;;;;;;;;4931073;29;20034;-48
2023/02/10 03:08:52;;;;;;;16.88;6.28;;;;;;;;;;4916521;29;20048;-48
2023/02/10 03:11:17;;;;;;;11.13;5.28;;;;;;;;;;4916375;29;20115;-49
2023/02/10 03:13:43;;;;;;;8.55;6.00;;;;;;;;;;4916029;29;20043;-49
2023/02/10 03:16:08;;;;;;;14.48;7.32;;;;;;;;;;4916175;29;20028;-48
2023/02/10 03:18:34;;;;;;;15.98;6.93;;;;;;;;;;4916010;29;20039;-48
2023/02/10 03:20:59;;;;;;;9.18;5.60;;;;;;;;;;4914894;29;20019;-48
2023/02/10 03:23:24;;;;;;;11.65;6.93;;;;;;;;;;4915771;29;20044;-48
2023/02/10 03:25:50;;;;;;;17.08;6.75;;;;;;;;;;4915721;29;20034;-48
2023/02/10 03:28:15;;;;;;;15.95;7.15;;;;;;;;;;4929917;29;20112;-49
2023/02/10 03:30:47;;;;;;;16.35;5.85;;;;;;;;;;4915856;29;20679;-48
2023/02/10 03:33:13;;;;;;;17.48;7.32;;;;;;;;;;4916101;29;20040;-49
2023/02/10 03:35:39;;;;;;;12.80;6.43;;;;;;;;;;4916038;29;20156;-48
2023/02/10 03:38:05;;;;;;;19.40;6.25;;;;;;;;;;4915635;29;20505;-48
2023/02/10 03:40:30;;;;;;;12.75;5.80;;;;;;;;;;4915725;29;20035;-48
2023/02/10 03:42:56;;;;;;;15.27;6.20;;;;;;;;;;4915585;29;20500;-50
2023/02/10 03:45:21;;;;;;;12.80;5.05;;;;;;;;;;4915530;29;20052;-49
2023/02/10 03:47:46;;;;;;;5.57;3.08;;;;;;;;;;4915525;29;20041;-49
2023/02/10 03:50:12;;;;;;;12.70;5.70;;;;;;;;;;4915593;29;20064;-49
2023/02/10 03:52:37;;;;;;;13.75;6.32;;;;;;;;;;4915413;29;20046;-49
2023/02/10 03:55:03;;;;;;;6.07;3.88;;;;;;;;;;4915472;29;20108;-49
2023/02/10 03:57:28;;;;;;;12.20;5.10;;;;;;;;;;4915603;29;20044;-48
2023/02/10 03:59:54;;;;;;;11.85;6.13;;;;;;;;;;4915622;29;20031;-48
2023/02/10 04:02:19;;;;;;;12.15;5.85;;;;;;;;;;4915359;29;20542;-48
2023/02/10 04:04:45;;;;;;;7.97;3.80;;;;;;;;;;4915522;29;20040;-49
2023/02/10 04:07:10;;;;;;;8.25;4.90;;;;;;;;;;4915280;29;20447;-48
2023/02/10 04:09:35;;;;;;;14.63;6.72;;;;;;;;;;4915360;29;20032;-48
2023/02/10 04:12:01;;;;;;;11.73;6.50;;;;;;;;;;4915828;29;20032;-49
2023/02/10 04:14:26;;;;;;;13.23;4.65;;;;;;;;;;4915049;29;20020;-49
2023/02/10 04:16:52;;;;;;;11.57;6.45;;;;;;;;;;4915592;29;20036;-48
2023/02/10 04:19:17;;;;;;;7.57;3.50;;;;;;;;;;4915346;29;20020;-50
2023/02/10 04:21:43;;;;;;;9.55;5.57;;;;;;;;;;4915023;29;20170;-48
2023/02/10 04:24:08;;;;;;;10.02;5.82;;;;;;;;;;4915131;29;20119;-48
2023/02/10 04:26:34;;;;;;;9.70;4.38;;;;;;;;;;4915072;29;20127;-48
2023/02/10 04:28:59;;;;;;;12.15;6.80;;;;;;;;;;4915099;29;20060;-48
2023/02/10 04:31:24;;;;;;;13.63;5.78;;;;;;;;;;4915361;29;20024;-48
2023/02/10 04:33:50;;;;;;;9.13;5.63;;;;;;;;;;4915330;29;20016;-49
2023/02/10 04:36:15;;;;;;;14.63;6.38;;;;;;;;;;4915101;29;20434;-48
2023/02/10 04:38:40;;;;;;;18.08;6.93;;;;;;;;;;4917049;29;20039;-48
2023/02/10 04:41:07;;;;;;;12.00;6.75;;;;;;;;;;4918852;29;20039;-48
2023/02/10 04:43:32;;;;;;;15.07;7.50;;;;;;;;;;4918915;29;20040;-48
2023/02/10 04:45:58;;;;;;;11.30;4.97;;;;;;;;;;4918758;29;20410;-48
2023/02/10 04:48:23;;;;;;;14.85;6.30;;;;;;;;;;4918792;29;20081;-48
2023/02/10 04:50:49;;;;;;;15.98;6.20;;;;;;;;;;4918587;29;20114;-48
2023/02/10 04:53:14;;;;;;;9.95;6.15;;;;;;;;;;4918931;29;20027;-49
2023/02/10 04:55:39;;;;;;;8.43;4.28;;;;;;;;;;4918844;29;20033;-48
2023/02/10 04:58:05;;;;;;;9.57;6.63;;;;;;;;;;4918534;29;20024;-49
2023/02/10 05:00:30;;;;;;;11.88;6.30;;;;;;;;;;4918514;29;20036;-48
2023/02/10 05:02:56;;;;;;;8.20;5.22;;;;;;;;;;4918435;29;20075;-49
2023/02/10 05:05:24;;;;;;;12.35;5.63;;;;;;;;;;4918448;29;20115;-48
2023/02/10 05:07:50;;;;;;;14.07;7.28;;;;;;;;;;4918419;29;20099;-49
2023/02/10 05:10:15;;;;;;;14.10;6.32;;;;;;;;;;4918261;29;20127;-49
2023/02/10 05:12:40;;;;;;;17.88;8.77;;;;;;;;;;4918167;29;20073;-48
2023/02/10 05:15:07;;;;;;;14.65;7.45;;;;;;;;;;4918351;29;20112;-48
2023/02/10 05:17:33;;;;;;;17.13;7.47;;;;;;;;;;4918405;29;20032;-48
2023/02/10 05:19:58;;;;;;;12.43;8.10;;;;;;;;;;4918208;29;20431;-49
2023/02/10 05:22:29;;;;;;;13.57;7.18;;;;;;;;;;4918382;29;20063;-48
2023/02/10 05:24:57;;;;;;;9.95;5.50;;;;;;;;;;4918043;29;20099;-48
2023/02/10 05:27:25;;;;;;;18.40;6.70;;;;;;;;;;4918366;29;20036;-49
2023/02/10 05:29:51;;;;;;;14.27;7.32;;;;;;;;;;4918301;29;20036;-48
2023/02/10 05:32:16;;;;;;;19.63;6.70;;;;;;;;;;4917942;29;20038;-49
2023/02/10 05:34:42;;;;;;;11.88;6.50;;;;;;;;;;4917919;29;20047;-49
2023/02/10 05:37:07;;;;;;;9.25;5.97;;;;;;;;;;4918008;29;20032;-48
2023/02/10 05:39:32;;;;;;;15.82;6.10;;;;;;;;;;4918036;29;20064;-49
2023/02/10 05:41:58;;;;;;;14.38;5.75;;;;;;;;;;4918042;29;20035;-48
2023/02/10 05:44:25;;;;;;;9.60;5.13;;;;;;;;;;4917780;29;20078;-49
2023/02/10 05:46:50;;;;;;;11.20;5.15;;;;;;;;;;4917750;29;20028;-48
2023/02/10 05:49:16;;;;;;;8.52;4.50;;;;;;;;;;4917093;29;20043;-48
2023/02/10 05:51:42;;;;;;;14.25;5.97;;;;;;;;;;4917399;29;20027;-49
2023/02/10 05:54:07;;;;;;;19.77;7.22;;;;;;;;;;4917524;29;20047;-48
2023/02/10 05:56:32;;;;;;;20.92;7.70;;;;;;;;;;4917512;29;20072;-48
2023/02/10 05:58:58;;;;;;;11.98;5.57;;;;;;;;;;4932109;29;20052;-48
2023/02/10 06:01:23;;;;;;;17.42;6.50;;;;;;;;;;4917489;29;20024;-48
2023/02/10 06:03:49;;;;;;;13.73;5.75;;;;;;;;;;4917546;29;20044;-49
2023/02/10 06:06:14;;;;;;;9.25;5.78;;;;;;;;;;4917318;29;20035;-48
2023/02/10 06:08:40;;;;;;;14.45;6.90;;;;;;;;;;4917479;29;20032;-48
2023/02/10 06:11:06;;;;;;;8.15;5.35;;;;;;;;;;4917584;29;20465;-48
2023/02/10 06:13:31;;;;;;;11.10;6.03;;;;;;;;;;4917260;29;20402;-48
2023/02/10 06:15:56;;;;;;;14.77;5.78;;;;;;;;;;4917285;29;20103;-48
2023/02/10 06:18:22;;;;;;;9.50;4.82;;;;;;;;;;4917195;29;20043;-48
2023/02/10 06:20:48;;;;;;;16.17;6.75;;;;;;;;;;4917095;29;20032;-49
2023/02/10 06:23:14;;;;;;;8.85;4.85;;;;;;;;;;4916966;29;20094;-48
2023/02/10 06:25:39;;;;;;;12.93;5.70;;;;;;;;;;4917348;29;20032;-48
2023/02/10 06:28:04;;;;;;;10.23;4.93;;;;;;;;;;4917038;29;20044;-48
2023/02/10 06:30:30;;;;;;;14.27;6.10;;;;;;;;;;4916850;29;20128;-48
2023/02/10 06:32:56;;;;;;;16.08;7.63;;;;;;;;;;4916878;29;20036;-48
2023/02/10 06:35:21;;;;;;;8.65;6.05;;;;;;;;;;4916877;29;20263;-48
2023/02/10 06:37:46;;;;;;;15.75;7.32;;;;;;;;;;4917004;29;20079;-49
2023/02/10 06:40:12;;;;;;;11.88;3.55;;;;;;;;;;4931390;29;20038;-48
2023/02/10 06:42:37;;;;;;;11.43;4.65;;;;;;;;;;4916567;29;20044;-49
2023/02/10 06:45:03;;;;;;;13.93;6.63;;;;;;;;;;4930979;29;20105;-49
2023/02/10 06:47:29;;;;;;;13.57;6.97;;;;;;;;;;4916647;29;20071;-49
2023/02/10 06:49:54;;;;;;;8.63;4.72;;;;;;;;;;4916554;29;20533;-47
2023/02/10 06:52:21;;;;;;;15.90;6.60;;;;;;;;;;4916579;29;20032;-48
2023/02/10 06:54:46;;;;;;;8.57;5.72;;;;;;;;;;4916467;29;20046;-48
2023/02/10 06:57:12;;;;;;;14.70;7.32;;;;;;;;;;4931023;29;20479;-48
2023/02/10 06:59:37;;;;;;;9.20;4.78;;;;;;;;;;4916488;29;20012;-48
2023/02/10 07:02:04;;;;;;;8.70;5.50;;;;;;;;;;4930903;29;20087;-48
2023/02/10 07:04:31;;;;;;;15.05;7.00;;;;;;;;;;4916170;29;20462;-48
2023/02/10 07:06:57;;;;;;;11.95;5.60;;;;;;;;;;4916640;29;20034;-48
2023/02/10 07:09:23;;;;;;;13.13;5.82;;;;;;;;;;4916262;29;20031;-48
2023/02/10 07:11:49;;;;;;;18.08;5.97;;;;;;;;;;4915988;29;20044;-48
2023/02/10 07:14:15;;;;;;;8.98;5.38;;;;;;;;;;4916192;29;20052;-49
2023/02/10 07:16:40;;;;;;;8.43;4.15;;;;;;;;;;4916036;29;20063;-48
2023/02/10 07:19:07;;;;;;;15.43;5.53;;;;;;;;;;4916085;29;20575;-48
2023/02/10 07:21:32;;;;;;;13.85;6.40;;;;;;;;;;4916096;29;20063;-48
2023/02/10 07:23:58;;;;;;;11.32;5.85;;;;;;;;;;4916229;29;20446;-48
2023/02/10 07:26:23;;;;;;;12.75;5.70;;;;;;;;;;4916184;29;20483;-49
2023/02/10 07:28:49;;;;;;;14.45;6.35;;;;;;;;;;4915901;29;20399;-48
2023/02/10 07:31:14;;;;;;;12.18;5.65;;;;;;;;;;4916212;29;20035;-49
2023/02/10 07:33:40;;;;;;;11.13;6.65;;;;;;;;;;4915666;29;20478;-48
2023/02/10 07:36:06;;;;;;;14.90;5.88;;;;;;;;;;4915803;29;20044;-48
2023/02/10 07:38:31;;;;;;;9.98;5.22;;;;;;;;;;4915984;29;20032;-48
2023/02/10 07:40:57;;;;;;;10.63;5.53;;;;;;;;;;4915696;29;20501;-48
2023/02/10 07:43:22;;;;;;;12.77;6.63;;;;;;;;;;4915615;29;20037;-50
2023/02/10 07:46:02;;;;;;;8.25;4.90;;;;;;;;;;4915565;29;20055;-48
2023/02/10 07:48:27;;;;;;;19.92;6.28;;;;;;;;;;4915586;29;20044;-48
2023/02/10 07:50:53;;;;;;;9.07;5.13;;;;;;;;;;4915501;29;20028;-48
2023/02/10 07:53:19;;;;;;;15.45;5.78;;;;;;;;;;4915562;29;20031;-49
2023/02/10 07:55:44;;;;;;;11.18;6.88;;;;;;;;;;4915659;29;20364;-48
2023/02/10 07:58:10;;;;;;;10.05;5.13;;;;;;;;;;4915810;29;20047;-48
2023/02/10 08:00:35;;;;;;;13.20;5.13;;;;;;;;;;4915397;29;20608;-48
2023/02/10 08:03:01;;;;;;;15.13;6.10;;;;;;;;;;4915540;29;20088;-48
2023/02/10 08:05:28;;;;;;;11.43;6.35;;;;;;;;;;4915403;29;20398;-48
2023/02/10 08:07:54;;;;;;;16.77;6.40;;;;;;;;;;4915386;29;20036;-48
2023/02/10 08:10:19;;;;;;;16.02;5.78;;;;;;;;;;4915328;29;20128;-48
2023/02/10 08:12:46;;;;;;;9.73;4.07;;;;;;;;;;4914780;29;20032;-48
2023/02/10 08:15:11;;;;;;;13.57;5.78;;;;;;;;;;4915255;29;20478;-48
2023/02/10 08:17:38;;;;;;;9.55;4.45;;;;;;;;;;4915171;29;20047;-48
2023/02/10 08:20:04;;;;;;;16.20;5.78;;;;;;;;;;4914005;29;20020;-48
2023/02/10 08:22:30;;;;;;;10.15;4.75;;;;;;;;;;4915617;29;20036;-47
2023/02/10 08:24:55;;;;;;;12.32;6.70;;;;;;;;;;4915018;29;20501;-48
2023/02/10 08:27:21;;;;;;;8.10;5.38;;;;;;;;;;4915222;29;20031;-48
2023/02/10 08:29:46;;;;;;;8.43;5.43;;;;;;;;;;4915024;29;20032;-48
2023/02/10 08:32:12;;;;;;;9.40;5.38;;;;;;;;;;4915068;29;20043;-49
2023/02/10 08:34:38;;;;;;;10.88;3.75;;;;;;;;;;4915111;29;20479;-48
2023/02/10 08:37:04;;;;;;;11.35;5.45;;;;;;;;;;4914904;29;20063;-48
2023/02/10 08:39:30;;;;;;;9.18;5.00;;;;;;;;;;4915107;29;20028;-49
2023/02/10 08:41:55;;;;;;;12.23;6.13;;;;;;;;;;4914957;29;20168;-48
2023/02/10 08:44:21;;;;;;;9.35;5.07;;;;;;;;;;4914816;29;20052;-48
2023/02/10 08:46:46;;;;;;;9.50;4.97;;;;;;;;;;4915235;29;20032;-49
2023/02/10 08:49:12;;;;;;;13.02;4.90;;;;;;;;;;4914989;29;20040;-48
2023/02/10 08:51:38;;;;;;;12.52;6.30;;;;;;;;;;4914861;29;20032;-48
2023/02/10 08:54:04;;;;;;;9.00;5.18;;;;;;;;;;4914962;29;20024;-48
2023/02/10 08:56:30;;;;;;;17.67;7.53;;;;;;;;;;4929606;29;20092;-48
2023/02/10 08:58:56;;;;;;;16.73;5.85;;;;;;;;;;4929457;29;20028;-48
2023/02/10 09:01:23;;;;;;;11.43;6.32;;;;;;;;;;4914936;29;20024;-50
2023/02/10 09:03:48;;;;;;;15.88;5.70;;;;;;;;;;4914677;29;20036;-48
2023/02/10 09:06:15;;;;;;;9.35;4.95;;;;;;;;;;4914776;29;20034;-48
2023/02/10 09:08:41;;;;;;;9.85;5.35;;;;;;;;;;4914788;29;20032;-48
2023/02/10 09:11:07;;;;;;;7.78;3.95;;;;;;;;;;4915110;29;20088;-48
2023/02/10 09:13:33;;;;;;;11.80;5.80;;;;;;;;;;4914670;29;20028;-48
2023/02/10 09:15:58;;;;;;;4.35;3.95;;;;;;;;;;4929392;29;20135;-48
2023/02/10 09:18:24;;;;;;;15.75;6.55;;;;;;;;;;4929283;29;20087;-49
2023/02/10 09:20:50;;;;;;;13.93;5.55;;;;;;;;;;4914551;29;20036;-48
2023/02/10 09:23:15;;;;;;;10.18;5.10;;;;;;;;;;4914623;29;20084;-48
2023/02/10 09:25:41;;;;;;;7.13;2.55;;;;;;;;;;4916663;29;20518;-48
2023/02/10 09:28:06;;;;;;;9.43;4.40;;;;;;;;;;4918041;29;20032;-50
2023/02/10 09:30:32;;;;;;;11.68;5.95;;;;;;;;;;4918263;29;20044;-48
2023/02/10 09:32:57;;;;;;;12.55;6.22;;;;;;;;;;4918019;29;20106;-48
2023/02/10 09:35:23;;;;;;;13.43;5.88;;;;;;;;;;4917949;29;20048;-48
2023/02/10 09:37:49;;;;;;;5.25;3.00;;;;;;;;;;4917880;29;20028;-48
2023/02/10 09:40:23;;;;;;;11.75;4.75;;;;;;;;;;4917866;29;20235;-48
2023/02/10 09:43:05;;;;;;;15.30;5.50;;;;;;;;;;4917550;29;20495;-49
2023/02/10 09:45:35;;;;;;;10.10;3.83;;;;;;;;;;4917738;29;20056;-48
2023/02/10 09:48:25;;;;;;;6.90;4.57;;;;;;;;;;4917742;29;20032;-48
2023/02/10 09:50:59;;;;;;;12.73;5.32;;;;;;;;;;4917634;29;20043;-48
2023/02/10 09:53:27;;;;;;;10.23;5.22;;;;;;;;;;4917591;29;20573;-48
2023/02/10 09:55:57;;;;;;;11.40;4.53;;;;;;;;;;4917428;29;20055;-48
2023/02/10 09:58:27;;;;;;;10.98;5.20;;;;;;;;;;4917533;29;20043;-50
2023/02/10 10:00:57;;;;;;;12.15;5.05;;;;;;;;;;4917751;29;20356;-48
2023/02/10 10:03:28;;;;;;;7.00;3.92;;;;;;;;;;4917513;29;20143;-48
2023/02/10 10:06:16;;;;;;;9.07;5.63;;;;;;;;;;4917446;29;20032;-48
2023/02/10 10:09:00;;;;;;;8.38;4.00;;;;;;;;;;4917275;29;20067;-48
2023/02/10 10:11:26;;;;;;;8.85;4.32;;;;;;;;;;4916169;29;20386;-48
2023/02/10 10:13:53;;;;;;;11.38;5.72;;;;;;;;;;4931875;29;20032;-49
2023/02/10 10:16:23;;;;;;;9.85;4.30;;;;;;;;;;4915820;29;20040;-48
2023/02/10 10:19:00;;;;;;;10.05;4.47;;;;;;;;;;4917169;29;20035;-48
2023/02/10 10:21:31;;;;;;;13.57;5.07;;;;;;;;;;4917280;29;20107;-48
2023/02/10 10:24:25;;;;;;;9.70;3.53;;;;;;;;;;4916895;29;20036;-49
2023/02/10 10:26:54;;;;;;;7.55;3.65;;;;;;;;;;4907357;29;20394;-49
2023/02/10 10:29:23;;;;;;;7.07;3.55;;;;;;;;;;4931616;29;20462;-49
2023/02/10 10:31:50;;;;;;;13.10;4.13;;;;;;;;;;4916836;29;20049;-48
2023/02/10 10:34:17;;;;;;;5.68;3.83;;;;;;;;;;4916887;29;20020;-48
2023/02/10 10:36:45;;;;;;;6.10;4.07;;;;;;;;;;4916675;29;20506;-49
2023/02/10 10:39:13;;;;;;;5.57;2.97;;;;;;;;;;4916809;29;20065;-48
2023/02/10 10:41:41;;;;;;;8.27;3.47;;;;;;;;;;4916757;29;20559;-48
2023/02/10 10:44:09;;;;;;;6.88;3.85;;;;;;;;;;4916793;29;20032;-49
2023/02/10 10:46:45;;;;;;;8.52;4.32;;;;;;;;;;4916654;29;20044;-49
2023/02/10 10:49:10;;;;;;;7.75;4.03;;;;;;;;;;4916661;29;20039;-48
2023/02/10 10:51:37;;;;;;;5.85;4.50;;;;;;;;;;4916487;29;20020;-48
2023/02/10 10:54:04;;;;;;;10.70;3.08;;;;;;;;;;4916443;29;20123;-49
2023/02/10 10:56:43;;;;;;;9.68;3.83;;;;;;;;;;4916557;29;20028;-49
2023/02/10 10:59:27;;;;;;;8.20;4.13;;;;;;;;;;4916725;29;20036;-49
2023/02/10 11:01:52;;;;;;;6.45;3.22;;;;;;;;;;4916311;29;20529;-49
2023/02/10 11:04:19;;;;;;;6.35;3.53;;;;;;;;;;4916300;29;20032;-48
2023/02/10 11:06:49;;;;;;;4.35;3.63;;;;;;;;;;4916470;29;20087;-48
2023/02/10 11:09:19;;;;;;;6.97;2.85;;;;;;;;;;4916321;29;20080;-49
2023/02/10 11:11:45;;;;;;;2.47;1.85;;;;;;;;;;4916125;29;20032;-49
2023/02/10 11:14:15;;;;;;;8.90;4.55;;;;;;;;;;4916063;29;20032;-49
2023/02/10 11:16:43;;;;;;;10.50;3.47;;;;;;;;;;4916048;29;20039;-49
2023/02/10 11:19:16;;;;;;;1.70;1.48;;;;;;;;;;4916454;29;20045;-49
2023/02/10 11:21:41;;;;;;;8.60;4.22;;;;;;;;;;4916113;29;20032;-49
2023/02/10 11:24:16;;;;;;;4.07;3.67;;;;;;;;;;4915961;29;20395;-49
2023/02/10 11:26:42;;;;;;;6.82;3.65;;;;;;;;;;4916189;29;20032;-49
2023/02/10 11:29:10;;;;;;;12.45;3.28;;;;;;;;;;4915943;29;20054;-49
2023/02/10 11:31:37;;;;;;;4.95;3.75;;;;;;;;;;4915780;29;20503;-49
2023/02/10 11:34:21;;;;;;;6.30;3.88;;;;;;;;;;4915876;29;20047;-50
2023/02/10 11:36:47;;;;;;;3.60;3.17;;;;;;;;;;4916027;29;20035;-48
2023/02/10 11:39:22;;;;;;;7.53;2.15;;;;;;;;;;4915769;29;20031;-49
2023/02/10 11:41:48;;;;;;;7.38;2.95;;;;;;;;;;4915605;29;20391;-48
2023/02/10 11:44:22;;;;;;;1.67;1.58;;;;;;;;;;4915489;29;20606;-49
2023/02/10 11:46:54;;;;;;;1.67;1.25;;;;;;;;;;4915517;29;20044;-49
2023/02/10 11:49:19;;;;;;;3.35;2.22;;;;;;;;;;4915414;29;20036;-49
2023/02/10 11:51:52;;;;;;;2.35;2.15;;;;;;;;;;4915764;29;20525;-49
2023/02/10 11:54:18;;;;;;;3.30;2.60;;;;;;;;;;4915625;29;20047;-48
2023/02/10 11:59:56;;;;;;;7.97;3.00;;;;;;;;;;4915519;29;20028;-49
2023/02/10 12:02:40;;;;;;;4.28;2.38;;;;;;;;;;4915430;29;20119;-48
2023/02/10 12:05:26;;;;;;;6.20;3.67;;;;;;;;;;4915393;29;20046;-49
2023/02/10 12:07:58;;;;;;;7.53;3.45;;;;;;;;;;4915158;29;20040;-49
2023/02/10 12:10:27;;;;;;;5.72;2.17;;;;;;;;;;4915663;29;20375;-49
2023/02/10 12:12:56;;;;;;;4.93;3.17;;;;;;;;;;4915177;29;20490;-48
2023/02/10 12:15:22;;;;;;;4.97;2.85;;;;;;;;;;4915296;29;20088;-48
2023/02/10 12:18:07;;;;;;;3.75;1.05;;;;;;;;;;4915202;29;20112;-49
2023/02/10 12:20:47;;;;;;;7.45;2.63;;;;;;;;;;4915500;29;20044;-49
2023/02/10 12:23:24;;;;;;;6.20;2.35;;;;;;;;;;4915438;29;20032;-51
2023/02/10 12:25:50;;;;;;;3.90;2.63;;;;;;;;;;4915132;29;20490;-49
2023/02/10 12:28:31;;;;;;;5.22;3.53;;;;;;;;;;4915217;29;20054;-49
2023/02/10 12:31:26;;;;;;;3.63;1.88;;;;;;;;;;4915365;29;20063;-49
2023/02/10 12:34:10;;;;;;;8.02;3.25;;;;;;;;;;4910692;29;20036;-48
2023/02/10 12:36:50;;;;;;;5.40;3.22;;;;;;;;;;4915120;29;20032;-49
2023/02/10 12:39:27;;;;;;;5.45;2.47;;;;;;;;;;4915005;29;20032;-49
2023/02/10 12:42:00;;;;;;;5.57;3.05;;;;;;;;;;4914948;29;20040;-48
2023/02/10 12:44:25;;;;;;;6.90;3.08;;;;;;;;;;4914769;29;20079;-49
2023/02/10 12:46:54;;;;;;;3.85;2.30;;;;;;;;;;4914905;29;20032;-49
2023/02/10 12:49:28;;;;;;;5.05;2.50;;;;;;;;;;4929855;29;20039;-48
2023/02/10 12:51:59;;;;;;;1.52;1.15;;;;;;;;;;4914947;29;20032;-49
2023/02/10 12:54:38;;;;;;;7.10;2.67;;;;;;;;;;4914957;29;20063;-49
2023/02/10 12:57:15;;;;;;;4.07;3.53;;;;;;;;;;4915281;29;20067;-48
2023/02/10 13:00:02;;;;;;;4.20;2.38;;;;;;;;;;4916776;29;20040;-49
2023/02/10 13:02:28;;;;;;;2.15;1.73;;;;;;;;;;4918539;29;20051;-49
2023/02/10 13:04:56;;;;;;;8.88;2.30;;;;;;;;;;4918481;29;20427;-49
2023/02/10 13:07:28;;;;;;;4.97;2.65;;;;;;;;;;4918417;29;20532;-49
2023/02/10 13:10:12;;;;;;;3.55;2.63;;;;;;;;;;4918342;29;20083;-49
2023/02/10 13:12:39;;;;;;;4.25;2.25;;;;;;;;;;4918539;29;20051;-49
2023/02/10 13:15:18;;;;;;;2.67;2.30;;;;;;;;;;4918338;29;20020;-49
2023/02/10 13:17:45;;;;;;;1.98;1.70;;;;;;;;;;4918452;29;20055;-49
2023/02/10 13:20:29;;;;;;;10.30;2.45;;;;;;;;;;4918313;29;20076;-49
2023/02/10 13:22:55;;;;;;;3.25;2.13;;;;;;;;;;4918119;29;20036;-49
2023/02/10 13:25:21;;;;;;;5.35;3.00;;;;;;;;;;4918112;29;20032;-49
2023/02/10 13:28:05;;;;;;;5.32;2.33;;;;;;;;;;4932687;29;20549;-49
2023/02/10 13:30:37;;;;;;;4.07;1.83;;;;;;;;;;4917997;29;20040;-49
2023/02/10 13:33:11;;;;;;;3.33;2.15;;;;;;;;;;4918062;29;20430;-49
2023/02/10 13:35:40;;;;;;;1.27;1.02;;;;;;;;;;4917885;29;20124;-49
2023/02/10 13:38:09;;;;;;;4.03;1.63;;;;;;;;;;4918030;29;20471;-49
2023/02/10 13:40:51;;;;;;;3.30;2.50;;;;;;;;;;4918154;29;20028;-49
2023/02/10 13:43:31;;;;;;;4.97;2.92;;;;;;;;;;4918053;29;20036;-49
2023/02/10 13:45:58;;;;;;;3.25;1.88;;;;;;;;;;4917524;29;20063;-49
2023/02/10 13:48:28;;;;;;;1.73;1.55;;;;;;;;;;4918124;29;20072;-49
2023/02/10 13:50:55;;;;;;;1.95;1.27;;;;;;;;;;4917885;29;20384;-49
2023/02/10 13:53:33;;;;;;;6.22;2.50;;;;;;;;;;4917402;29;20058;-49
2023/02/10 13:56:17;;;;;;;2.80;1.75;;;;;;;;;;4917596;29;20542;-49
2023/02/10 13:59:07;;;;;;;2.88;1.90;;;;;;;;;;4917507;29;20079;-49
2023/02/10 14:01:34;;;;;;;3.85;2.10;;;;;;;;;;4917574;29;20032;-48
2023/02/10 14:04:01;;;;;;;3.58;1.75;;;;;;;;;;4917300;29;20028;-49
2023/02/10 14:06:37;;;;;;;8.27;1.42;;;;;;;;;;4917450;29;20479;-49
2023/02/10 14:09:06;;;;;;;5.53;2.03;;;;;;;;;;4917425;29;20043;-49
2023/02/10 14:11:40;;;;;;;2.72;2.28;;;;;;;;;;4915334;29;20051;-49
2023/02/10 14:14:35;;;;;;;4.40;2.72;;;;;;;;;;4931971;29;20402;-48
2023/02/10 14:17:04;;;;;;;5.50;2.60;;;;;;;;;;4907678;29;20052;-49
2023/02/10 14:19:31;;;;;;;3.60;2.75;;;;;;;;;;4917247;29;20078;-49
2023/02/10 14:21:58;;;;;;;2.38;1.95;;;;;;;;;;4931616;29;20160;-49
2023/02/10 14:24:26;;;;;;;5.15;2.70;;;;;;;;;;4915780;29;20363;-49
2023/02/10 14:26:52;;;;;;;4.05;2.60;;;;;;;;;;4917001;29;20024;-49
2023/02/10 14:29:19;;;;;;;5.65;1.88;;;;;;;;;;4917110;29;20028;-49
2023/02/10 14:31:48;;;;;;;5.22;2.65;;;;;;;;;;4916892;29;20024;-49
2023/02/10 14:34:38;;;;;;;4.28;2.20;;;;;;;;;;4916915;29;20017;-49
2023/02/10 14:37:18;;;;;;;6.20;2.90;;;;;;;;;;4913929;29;20115;-49
2023/02/10 14:39:58;;;;;;;3.50;1.40;;;;;;;;;;4916949;29;20052;-49
2023/02/10 14:42:25;;;;;;;5.25;1.98;;;;;;;;;;4916823;29;20039;-48
2023/02/10 14:44:52;;;;;;;4.32;2.20;;;;;;;;;;4916531;29;20052;-49
2023/02/10 14:47:19;;;;;;;3.05;2.35;;;;;;;;;;4916719;29;20589;-49